createdAt,value
2022-10-01T00:00:19.110Z,2.85
2022-10-01T00:02:49.670Z,3.20
2022-10-01T00:05:20.000Z,3.38
2022-10-01T00:10:19.314Z,2.95
2022-10-01T00:12:50.690Z,2.83
2022-10-01T00:15:22.083Z,4.97
2022-10-01T00:17:52.267Z,4.10
2022-10-01T00:20:21.989Z,5.95
2022-10-01T00:25:21.320Z,4.93
2022-10-01T00:27:51.095Z,5.15
2022-10-01T00:30:20.981Z,4.80
2022-10-01T00:32:51.187Z,2.85
2022-10-01T00:35:21.056Z,2.55
2022-10-01T00:37:54.894Z,2.35
2022-10-01T00:40:25.154Z,2.28
2022-10-01T00:42:54.869Z,2.92
2022-10-01T00:45:24.793Z,4.47
2022-10-01T00:48:00.444Z,2.50
2022-10-01T00:50:36.014Z,2.30
2022-10-01T00:53:13.023Z,2.72
2022-10-01T00:55:48.929Z,2.17
2022-10-01T00:58:21.532Z,3.00
2022-10-01T01:00:52.868Z,6.00
2022-10-01T01:03:23.150Z,1.90
2022-10-01T01:05:52.936Z,3.20
2022-10-01T01:08:23.109Z,4.70
2022-10-01T01:11:11.605Z,4.95
2022-10-01T01:13:51.395Z,7.07
2022-10-01T01:16:48.150Z,5.97
2022-10-01T01:19:30.835Z,3.42
2022-10-01T01:22:04.752Z,2.42
2022-10-01T01:24:58.059Z,4.05
2022-10-01T01:27:46.213Z,3.10
2022-10-01T01:30:18.394Z,3.85
2022-10-01T01:32:54.341Z,2.42
2022-10-01T01:35:42.399Z,2.47
2022-10-01T01:38:21.576Z,3.53
2022-10-01T01:40:56.954Z,2.42
2022-10-01T01:43:36.295Z,3.95
2022-10-01T01:46:09.821Z,4.32
2022-10-01T01:48:43.148Z,4.00
2022-10-01T01:51:22.189Z,2.80
2022-10-01T01:53:52.668Z,3.10
2022-10-01T01:56:22.724Z,2.50
2022-10-01T01:58:53.660Z,3.90
2022-10-01T02:01:42.898Z,4.47
2022-10-01T02:04:19.246Z,4.82
2022-10-01T02:07:07.022Z,5.35
2022-10-01T02:10:05.972Z,6.72
2022-10-01T02:12:42.837Z,5.13
2022-10-01T02:15:21.469Z,7.78
2022-10-01T02:18:17.761Z,9.05
2022-10-01T02:21:13.760Z,15.07
2022-10-01T02:23:59.899Z,15.75
2022-10-01T02:26:33.031Z,15.80
2022-10-01T02:29:09.571Z,22.85
2022-10-01T02:31:40.114Z,19.13
2022-10-01T02:34:12.878Z,25.67
2022-10-01T02:36:44.725Z,25.83
2022-10-01T02:39:21.242Z,32.45
2022-10-01T02:41:53.244Z,26.48
2022-10-01T02:44:31.371Z,36.63
2022-10-01T02:47:08.951Z,32.20
2022-10-01T02:49:42.450Z,27.38
2022-10-01T02:52:30.838Z,28.60
2022-10-01T02:55:08.647Z,26.33
2022-10-01T02:57:39.800Z,28.02
2022-10-01T03:00:15.796Z,27.85
2022-10-01T03:02:45.701Z,29.45
2022-10-01T03:05:16.586Z,78.13
2022-10-01T03:07:47.568Z,36.75
2022-10-01T03:10:17.973Z,147.75
2022-10-01T03:12:48.301Z,185.55
2022-10-01T03:15:20.329Z,105.40
2022-10-01T03:17:54.741Z,143.57
2022-10-01T03:20:25.158Z,53.55
2022-10-01T03:22:54.940Z,31.67
2022-10-01T03:25:24.653Z,23.05
2022-10-01T03:27:55.034Z,22.60
2022-10-01T03:30:25.139Z,24.00
2022-10-01T03:32:54.870Z,20.40
2022-10-01T03:35:26.038Z,21.45
2022-10-01T03:37:56.120Z,16.73
2022-10-01T03:40:26.445Z,24.23
2022-10-01T03:42:56.511Z,21.55
2022-10-01T03:45:26.322Z,23.13
2022-10-01T03:47:56.116Z,22.65
2022-10-01T03:50:25.789Z,21.00
2022-10-01T03:55:26.689Z,20.80
2022-10-01T03:57:56.522Z,30.60
2022-10-01T04:02:56.132Z,24.02
2022-10-01T04:05:27.066Z,29.90
2022-10-01T04:07:57.168Z,24.92
2022-10-01T04:10:27.339Z,23.02
2022-10-01T04:12:57.077Z,21.55
2022-10-01T04:15:26.929Z,19.23
2022-10-01T04:17:56.626Z,18.58
2022-10-01T04:20:26.533Z,19.20
2022-10-01T04:22:56.213Z,34.38
2022-10-01T04:25:25.928Z,27.15
2022-10-01T04:28:04.651Z,33.65
2022-10-01T04:30:43.340Z,28.65
2022-10-01T04:33:18.571Z,30.58
2022-10-01T04:35:48.834Z,20.60
2022-10-01T04:38:19.237Z,27.10
2022-10-01T04:40:49.599Z,39.90
2022-10-01T04:43:19.323Z,48.22
2022-10-01T04:45:49.016Z,70.53
2022-10-01T04:48:19.674Z,29.15
2022-10-01T04:50:49.753Z,94.38
2022-10-01T04:53:19.550Z,98.35
2022-10-01T04:55:49.272Z,57.50
2022-10-01T04:58:19.790Z,65.70
2022-10-01T05:00:51.127Z,64.10
2022-10-01T05:03:21.450Z,66.20
2022-10-01T05:05:51.192Z,42.72
2022-10-01T05:08:20.925Z,24.33
2022-10-01T05:10:50.637Z,39.00
2022-10-01T05:13:20.348Z,39.50
2022-10-01T05:15:53.476Z,42.35
2022-10-01T05:18:23.678Z,41.63
2022-10-01T05:20:53.392Z,45.28
2022-10-01T05:23:23.312Z,49.88
2022-10-01T05:25:53.017Z,36.10
2022-10-01T05:28:22.961Z,38.45
2022-10-01T05:30:52.738Z,45.28
2022-10-01T05:33:22.810Z,34.72
2022-10-01T05:35:53.170Z,80.05
2022-10-01T05:38:22.873Z,41.60
2022-10-01T05:40:52.689Z,47.08
2022-10-01T05:43:22.372Z,52.03
2022-10-01T05:45:52.376Z,46.13
2022-10-01T05:48:22.924Z,33.78
2022-10-01T05:50:53.423Z,24.27
2022-10-01T05:53:24.704Z,19.55
2022-10-01T05:55:54.788Z,20.85
2022-10-01T05:58:24.535Z,19.67
2022-10-01T06:00:56.408Z,17.58
2022-10-01T06:03:29.794Z,21.05
2022-10-01T06:05:59.749Z,17.52
2022-10-01T06:08:29.764Z,22.45
2022-10-01T06:11:03.717Z,20.00
2022-10-01T06:13:34.028Z,20.83
2022-10-01T06:16:03.819Z,20.40
2022-10-01T06:18:33.579Z,17.48
2022-10-01T06:21:03.641Z,18.73
2022-10-01T06:23:33.441Z,18.33
2022-10-01T06:26:06.718Z,17.38
2022-10-01T06:28:36.786Z,23.10
2022-10-01T06:31:06.940Z,17.90
2022-10-01T06:33:37.310Z,23.13
2022-10-01T06:36:07.274Z,23.65
2022-10-01T06:38:37.031Z,20.55
2022-10-01T06:41:06.935Z,23.60
2022-10-01T06:43:36.623Z,24.33
2022-10-01T06:48:37.564Z,20.10
2022-10-01T06:51:07.749Z,21.52
2022-10-01T06:53:37.443Z,23.40
2022-10-01T06:56:09.073Z,21.15
2022-10-01T06:58:39.515Z,21.23
2022-10-01T07:01:09.249Z,20.65
2022-10-01T07:03:39.086Z,23.45
2022-10-01T07:06:10.183Z,24.63
2022-10-01T07:08:40.262Z,22.10
2022-10-01T07:11:10.030Z,27.33
2022-10-01T07:13:39.764Z,25.02
2022-10-01T07:16:09.475Z,22.15
2022-10-01T07:18:39.182Z,19.80
2022-10-01T07:23:38.139Z,18.92
2022-10-01T07:26:10.298Z,20.35
2022-10-01T07:28:40.326Z,20.30
2022-10-01T07:31:12.726Z,19.42
2022-10-01T07:33:43.318Z,20.70
2022-10-01T07:36:14.506Z,21.35
2022-10-01T07:38:46.310Z,24.95
2022-10-01T07:41:18.392Z,24.20
2022-10-01T07:43:48.570Z,22.80
2022-10-01T07:46:18.350Z,24.83
2022-10-01T07:48:50.801Z,27.50
2022-10-01T07:51:20.828Z,24.42
2022-10-01T07:56:20.985Z,21.98
2022-10-01T07:58:51.932Z,23.52
2022-10-01T08:01:22.154Z,22.55
2022-10-01T08:03:53.313Z,21.58
2022-10-01T08:06:25.630Z,23.77
2022-10-01T08:08:56.208Z,24.63
2022-10-01T08:13:57.046Z,25.90
2022-10-01T08:16:30.212Z,22.42
2022-10-01T08:19:00.462Z,20.80
2022-10-01T08:21:30.635Z,26.35
2022-10-01T08:24:00.338Z,22.42
2022-10-01T08:26:30.580Z,24.75
2022-10-01T08:29:00.672Z,22.83
2022-10-01T08:31:33.077Z,25.05
2022-10-01T08:34:03.947Z,23.98
2022-10-01T08:36:36.820Z,19.88
2022-10-01T08:39:06.911Z,22.52
2022-10-01T08:44:29.004Z,20.90
2022-10-01T08:47:09.473Z,23.98
2022-10-01T08:49:49.568Z,18.42
2022-10-01T08:52:27.735Z,20.05
2022-10-01T08:55:13.027Z,20.80
2022-10-01T08:57:51.029Z,17.55
2022-10-01T09:00:21.593Z,20.63
2022-10-01T09:02:54.306Z,18.30
2022-10-01T09:06:05.471Z,20.48
2022-10-01T09:08:53.029Z,19.63
2022-10-01T09:11:26.002Z,19.25
2022-10-01T09:14:10.721Z,19.23
2022-10-01T09:16:55.929Z,21.92
2022-10-01T09:19:55.535Z,23.95
2022-10-01T09:23:07.324Z,22.23
2022-10-01T09:25:40.363Z,29.45
2022-10-01T09:28:36.839Z,22.50
2022-10-01T09:31:29.215Z,23.67
2022-10-01T09:34:15.619Z,19.65
2022-10-01T09:37:11.074Z,20.33
2022-10-01T09:40:07.693Z,30.35
2022-10-01T09:42:37.594Z,17.80
2022-10-01T09:45:08.064Z,20.95
2022-10-01T09:47:37.821Z,19.00
2022-10-01T09:50:09.003Z,22.83
2022-10-01T09:52:42.138Z,22.02
2022-10-01T09:55:26.985Z,24.13
2022-10-01T09:58:22.865Z,21.38
2022-10-01T10:00:54.712Z,22.42
2022-10-01T10:03:32.098Z,22.20
2022-10-01T10:06:02.962Z,22.63
2022-10-01T10:08:35.059Z,25.15
2022-10-01T10:11:10.384Z,21.08
2022-10-01T10:13:52.139Z,20.63
2022-10-01T10:16:28.099Z,24.83
2022-10-01T10:19:03.471Z,24.50
2022-10-01T10:21:36.110Z,23.23
2022-10-01T10:24:08.682Z,21.80
2022-10-01T10:26:41.210Z,23.05
2022-10-01T10:29:29.862Z,20.92
2022-10-01T10:32:01.262Z,20.77
2022-10-01T10:34:41.231Z,19.80
2022-10-01T10:37:18.337Z,19.58
2022-10-01T10:39:52.921Z,15.95
2022-10-01T10:42:27.017Z,20.65
2022-10-01T10:45:03.586Z,22.70
2022-10-01T10:47:35.270Z,19.25
2022-10-01T10:50:08.283Z,16.65
2022-10-01T10:52:42.630Z,17.98
2022-10-01T10:55:26.215Z,15.77
2022-10-01T10:57:57.972Z,22.15
2022-10-01T11:00:30.869Z,22.02
2022-10-01T11:03:05.270Z,17.83
2022-10-01T11:05:43.428Z,17.13
2022-10-01T11:08:24.954Z,19.13
2022-10-01T11:11:07.482Z,20.73
2022-10-01T11:13:43.403Z,19.73
2022-10-01T11:16:30.677Z,20.10
2022-10-01T11:19:12.462Z,19.13
2022-10-01T11:22:06.358Z,21.98
2022-10-01T11:24:54.125Z,17.20
2022-10-01T11:28:01.039Z,19.50
2022-10-01T11:30:58.392Z,16.65
2022-10-01T11:33:54.394Z,15.73
2022-10-01T11:36:29.124Z,14.07
2022-10-01T11:39:06.755Z,20.48
2022-10-01T11:41:48.640Z,17.63
2022-10-01T11:44:56.313Z,19.48
2022-10-01T11:47:38.028Z,20.83
2022-10-01T11:50:20.368Z,17.67
2022-10-01T11:52:59.841Z,17.10
2022-10-01T11:56:30.653Z,21.05
2022-10-01T11:59:09.006Z,19.08
2022-10-01T12:01:42.121Z,14.98
2022-10-01T12:04:23.653Z,23.33
2022-10-01T12:07:22.559Z,19.17
2022-10-01T12:10:23.040Z,15.18
2022-10-01T12:13:17.626Z,15.95
2022-10-01T12:18:45.777Z,19.25
2022-10-01T12:21:30.941Z,24.60
2022-10-01T12:24:06.917Z,16.48
2022-10-01T12:26:48.388Z,18.02
2022-10-01T12:29:46.165Z,18.00
2022-10-01T12:32:25.508Z,20.58
2022-10-01T12:35:22.533Z,13.52
2022-10-01T12:38:15.993Z,13.20
2022-10-01T12:40:49.295Z,15.25
2022-10-01T12:43:40.168Z,25.70
2022-10-01T12:46:37.045Z,22.80
2022-10-01T12:49:28.619Z,19.67
2022-10-01T12:52:34.764Z,24.15
2022-10-01T12:55:22.676Z,17.40
2022-10-01T13:01:08.230Z,13.85
2022-10-01T13:03:41.331Z,16.65
2022-10-01T13:06:23.664Z,14.32
2022-10-01T13:09:04.944Z,16.10
2022-10-01T13:11:46.384Z,21.65
2022-10-01T13:14:19.247Z,17.33
2022-10-01T13:17:11.785Z,11.77
2022-10-01T13:19:52.454Z,14.88
2022-10-01T13:22:39.889Z,11.63
2022-10-01T13:25:47.732Z,12.20
2022-10-01T13:28:38.541Z,15.32
2022-10-01T13:31:17.338Z,11.95
2022-10-01T13:33:58.363Z,12.25
2022-10-01T13:36:36.154Z,15.63
2022-10-01T13:39:06.441Z,21.85
2022-10-01T13:41:37.121Z,15.18
2022-10-01T13:44:10.214Z,10.63
2022-10-01T13:46:55.053Z,16.50
2022-10-01T13:49:32.910Z,9.30
2022-10-01T13:52:04.155Z,10.70
2022-10-01T13:54:47.650Z,12.00
2022-10-01T13:57:32.841Z,19.63
2022-10-01T14:00:17.705Z,12.20
2022-10-01T14:03:24.753Z,12.18
2022-10-01T14:06:06.756Z,9.73
2022-10-01T14:08:47.681Z,8.70
2022-10-01T14:11:46.977Z,10.75
2022-10-01T14:14:55.436Z,8.93
2022-10-01T14:17:31.512Z,8.90
2022-10-01T14:20:02.505Z,7.70
2022-10-01T14:23:07.086Z,13.82
2022-10-01T14:25:53.891Z,15.38
2022-10-01T14:28:35.284Z,7.95
2022-10-01T14:31:38.960Z,11.27
2022-10-01T14:34:39.553Z,21.58
2022-10-01T14:37:16.990Z,13.80
2022-10-01T14:39:47.834Z,8.45
2022-10-01T14:42:19.818Z,12.95
2022-10-01T14:44:49.773Z,9.70
2022-10-01T14:47:29.017Z,8.90
2022-10-01T14:50:09.645Z,8.48
2022-10-01T14:52:45.030Z,8.68
2022-10-01T14:55:17.521Z,11.77
2022-10-01T14:57:54.320Z,4.88
2022-10-01T15:00:33.749Z,6.20
2022-10-01T15:03:13.732Z,7.03
2022-10-01T15:05:45.092Z,10.38
2022-10-01T15:08:25.102Z,5.10
2022-10-01T15:11:08.548Z,12.18
2022-10-01T15:13:42.189Z,7.63
2022-10-01T15:16:21.928Z,8.00
2022-10-01T15:19:08.464Z,6.93
2022-10-01T15:22:03.554Z,5.72
2022-10-01T15:24:50.158Z,4.88
2022-10-01T15:27:22.888Z,7.85
2022-10-01T15:29:56.456Z,10.98
2022-10-01T15:32:29.115Z,4.95
2022-10-01T15:35:02.371Z,4.72
2022-10-01T15:37:36.783Z,7.30
2022-10-01T15:40:11.252Z,8.90
2022-10-01T15:42:41.692Z,5.05
2022-10-01T15:45:11.930Z,11.80
2022-10-01T15:47:52.791Z,6.40
2022-10-01T15:50:28.151Z,5.65
2022-10-01T15:53:29.867Z,7.55
2022-10-01T15:56:01.940Z,6.93
2022-10-01T15:58:36.790Z,5.60
2022-10-01T16:01:22.173Z,6.35
2022-10-01T16:04:08.007Z,6.97
2022-10-01T16:06:39.932Z,4.40
2022-10-01T16:09:22.842Z,3.70
2022-10-01T16:11:58.008Z,3.75
2022-10-01T16:15:06.492Z,9.23
2022-10-01T16:17:45.093Z,4.07
2022-10-01T16:20:18.958Z,7.00
2022-10-01T16:22:49.269Z,3.95
2022-10-01T16:25:25.096Z,6.47
2022-10-01T16:28:07.230Z,4.63
2022-10-01T16:30:37.395Z,5.80
2022-10-01T16:33:07.230Z,4.40
2022-10-01T16:35:38.968Z,4.25
2022-10-01T16:38:10.263Z,3.67
2022-10-01T16:40:43.380Z,3.53
2022-10-01T16:43:26.874Z,2.38
2022-10-01T16:45:58.822Z,3.08
2022-10-01T16:48:29.367Z,4.40
2022-10-01T16:51:00.415Z,2.35
2022-10-01T16:53:30.727Z,4.05
2022-10-01T16:56:00.398Z,2.75
2022-10-01T16:58:30.430Z,3.40
2022-10-01T17:01:00.228Z,6.57
2022-10-01T17:03:30.001Z,1.85
2022-10-01T17:05:59.994Z,2.83
2022-10-01T17:08:30.819Z,1.75
2022-10-01T17:11:04.205Z,4.15
2022-10-01T17:13:35.182Z,1.85
2022-10-01T17:16:06.952Z,6.30
2022-10-01T17:18:37.231Z,4.15
2022-10-01T17:21:07.164Z,1.70
2022-10-01T17:23:37.852Z,2.72
2022-10-01T17:26:08.827Z,4.30
2022-10-01T17:28:38.599Z,2.55
2022-10-01T17:31:10.637Z,1.85
2022-10-01T17:33:44.043Z,1.73
2022-10-01T17:36:15.058Z,3.83
2022-10-01T17:38:46.824Z,1.58
2022-10-01T17:41:17.063Z,3.83
2022-10-01T17:43:46.749Z,3.10
2022-10-01T17:46:16.732Z,3.88
2022-10-01T17:48:49.444Z,2.22
2022-10-01T17:51:19.958Z,2.97
2022-10-01T17:53:50.087Z,3.65
2022-10-01T17:56:20.820Z,5.88
2022-10-01T17:58:50.606Z,7.85
2022-10-01T18:01:23.099Z,4.07
2022-10-01T18:03:57.462Z,4.82
2022-10-01T18:06:27.857Z,3.28
2022-10-01T18:08:57.903Z,5.55
2022-10-01T18:11:29.628Z,6.30
2022-10-01T18:14:00.316Z,4.97
2022-10-01T18:16:30.758Z,5.85
2022-10-01T18:21:55.322Z,4.93
2022-10-01T18:24:25.974Z,2.85
2022-10-01T18:26:56.052Z,3.40
2022-10-01T18:29:29.856Z,2.85
2022-10-01T18:32:22.098Z,5.63
2022-10-01T18:35:00.187Z,2.10
2022-10-01T18:37:53.643Z,5.45
2022-10-01T18:40:42.181Z,1.90
2022-10-01T18:43:24.846Z,2.72
2022-10-01T18:46:25.912Z,3.53
2022-10-01T18:48:59.896Z,1.67
2022-10-01T18:51:59.983Z,5.57
2022-10-01T18:54:59.091Z,1.77
2022-10-01T19:00:25.566Z,2.38
2022-10-01T19:03:28.664Z,4.93
2022-10-01T19:06:09.621Z,3.63
2022-10-01T19:08:43.330Z,1.73
2022-10-01T19:11:25.132Z,5.80
2022-10-01T19:16:55.966Z,2.65
2022-10-01T19:19:36.343Z,2.00
2022-10-01T19:22:21.189Z,3.63
2022-10-01T19:24:59.200Z,1.73
2022-10-01T19:27:52.816Z,1.40
2022-10-01T19:30:23.121Z,1.48
2022-10-01T19:36:04.600Z,1.25
2022-10-01T19:38:43.462Z,3.60
2022-10-01T19:41:27.033Z,1.88
2022-10-01T19:44:04.568Z,1.38
2022-10-01T19:46:37.194Z,1.73
2022-10-01T19:51:50.603Z,1.50
2022-10-01T19:54:26.241Z,0.63
2022-10-01T19:57:02.939Z,0.98
2022-10-01T19:59:36.437Z,1.58
2022-10-01T20:02:17.693Z,2.97
2022-10-01T20:05:02.475Z,1.60
2022-10-01T20:07:50.061Z,1.13
2022-10-01T20:10:31.908Z,1.02
2022-10-01T20:13:14.004Z,0.80
2022-10-01T20:15:56.416Z,1.80
2022-10-01T20:18:48.217Z,3.55
2022-10-01T20:21:41.992Z,1.35
2022-10-01T20:24:18.166Z,1.90
2022-10-01T20:27:01.755Z,1.23
2022-10-01T20:29:52.296Z,2.13
2022-10-01T20:32:38.152Z,1.60
2022-10-01T20:35:29.292Z,2.63
2022-10-01T20:38:03.120Z,0.93
2022-10-01T20:40:37.373Z,3.03
2022-10-01T20:43:18.523Z,1.60
2022-10-01T20:45:52.586Z,1.02
2022-10-01T20:48:29.109Z,1.60
2022-10-01T20:51:11.016Z,1.52
2022-10-01T20:53:53.053Z,1.88
2022-10-01T20:56:38.080Z,1.88
2022-10-01T20:59:22.489Z,1.33
2022-10-01T21:02:25.188Z,1.58
2022-10-01T21:05:23.756Z,2.90
2022-10-01T21:07:59.168Z,1.45
2022-10-01T21:10:43.616Z,1.45
2022-10-01T21:13:38.176Z,0.52
2022-10-01T21:16:38.525Z,0.57
2022-10-01T21:19:28.907Z,1.40
2022-10-01T21:22:34.789Z,0.80
2022-10-01T21:25:11.835Z,2.45
2022-10-01T21:28:34.083Z,1.08
2022-10-01T21:31:22.360Z,1.27
2022-10-01T21:34:00.681Z,2.92
2022-10-01T21:36:57.500Z,1.80
2022-10-01T21:39:35.065Z,1.15
2022-10-01T21:42:28.329Z,0.70
2022-10-01T21:45:16.616Z,2.33
2022-10-01T21:48:04.640Z,1.58
2022-10-01T21:50:52.090Z,1.40
2022-10-01T21:53:48.869Z,1.25
2022-10-01T21:56:36.992Z,3.80
2022-10-01T21:59:19.133Z,0.98
2022-10-01T22:02:20.508Z,1.75
2022-10-01T22:05:03.632Z,1.60
2022-10-01T22:07:39.341Z,3.85
2022-10-01T22:10:18.878Z,2.25
2022-10-01T22:12:53.041Z,1.67
2022-10-01T22:15:45.571Z,1.75
2022-10-01T22:18:41.611Z,0.55
2022-10-01T22:21:16.081Z,1.27
2022-10-01T22:24:00.614Z,1.00
2022-10-01T22:26:34.211Z,2.10
2022-10-01T22:29:08.734Z,1.33
2022-10-01T22:31:40.461Z,2.88
2022-10-01T22:34:24.201Z,1.17
2022-10-01T22:37:07.744Z,2.58
2022-10-01T22:39:54.780Z,2.25
2022-10-01T22:42:37.335Z,1.95
2022-10-01T22:45:18.680Z,2.20
2022-10-01T22:48:15.184Z,1.38
2022-10-01T22:51:07.856Z,2.65
2022-10-01T22:54:19.564Z,2.28
2022-10-01T22:57:22.235Z,1.95
2022-10-01T23:00:11.025Z,1.35
2022-10-01T23:02:44.936Z,0.90
2022-10-01T23:05:48.457Z,1.38
2022-10-01T23:08:29.892Z,1.00
2022-10-01T23:11:35.154Z,1.70
2022-10-01T23:14:20.909Z,0.75
2022-10-01T23:17:03.954Z,1.20
2022-10-01T23:20:01.824Z,1.55
2022-10-01T23:22:49.436Z,0.85
2022-10-01T23:25:42.829Z,3.90
2022-10-01T23:28:33.434Z,1.10
2022-10-01T23:31:03.225Z,0.98
2022-10-01T23:36:43.955Z,1.67
2022-10-01T23:39:28.107Z,0.45
2022-10-01T23:42:09.386Z,2.42
2022-10-01T23:44:48.993Z,2.85
2022-10-01T23:47:35.668Z,1.35
2022-10-01T23:50:09.706Z,2.80
2022-10-01T23:52:46.697Z,4.13
2022-10-01T23:55:39.038Z,1.30
2022-10-01T23:58:12.670Z,2.22
